Delta Ios — SVAK9 — position and weather

sailwx.info

Track history (hours):
 
Tides and Currents Weather Stations Pressure Air Temp Water Temp Dewpoint Dewpoint Depression Visibility Wind Speed Wind Dir Waves Ship Positions

Delta Ios

Last reported at 2014-Dec-18 11:10 UTC. Time now 2014-Dec-20 13:43 UTC.
Position N 50°24' W 000°34'.

Length 276 m; draft 10.5 m.

Type: Tanker. MMSI: 240821000.

Date/timePositionNaut miles runAvg speedWind from/ knotsBaromVisibWave heightAir tempDewpointWater temp
2014-Dec-18 11:10N 50°24' W 000°34'810.0
2014-Dec-18 10:23N 50°27' W 000°22'9 9.7
2014-Dec-18 09:25N 50°29' W 000°08'9 9.4
2014-Dec-18 08:29N 50°32' E 000°05'8 9.0
2014-Dec-18 07:33N 50°34' E 000°18'8 8.4
2014-Dec-18 06:33N 50°36' E 000°31'8 8.4
2014-Dec-18 05:33N 50°40' E 000°42'9 9.5
2014-Dec-18 04:33N 50°46' E 000°54'1111.1
2014-Dec-18 03:33N 50°53' E 001°07'1212.3
2014-Dec-18 02:33N 51°01' E 001°22'1212.4
2014-Dec-18 01:33N 51°09' E 001°37'1111.3
2014-Dec-18 00:34N 51°18' E 001°49'1110.5
2014-Dec-17 23:34N 51°27' E 001°57'1010.1
2014-Dec-17 22:34N 51°35' E 002°07'1010.1
2014-Dec-17 21:34N 51°42' E 002°19'1110.4
2014-Dec-17 20:32N 51°50' E 002°31'1110.9
2014-Dec-17 19:33N 51°60' E 002°37'37310.3
2014-Dec-16 07:07N 57°16' E 008°19'68 8.6
2014-Dec-15 23:13N 57°49' E 010°10'6 9.2
2014-Dec-15 22:34N 57°49' E 010°21'9 9.2
2014-Dec-15 21:33N 57°50' E 010°38'8 8.2
2014-Dec-15 20:33N 57°49' E 010°54'9 9.2
2014-Dec-15 19:33N 57°44' E 011°09'10 9.8
2014-Dec-15 18:33N 57°39' E 011°24'9 8.8
2014-Dec-15 17:33N 57°37' E 011°40'6 5.7
2014-Dec-15 16:33N 57°41' E 011°47'0 0.0
2014-Dec-15 15:33N 57°41' E 011°47'0 0.0
2014-Dec-15 14:33N 57°41' E 011°47'0 0.0
2014-Dec-15 13:33N 57°41' E 011°47'0 0.0
2014-Dec-15 12:33N 57°41' E 011°47'0 0.0
2014-Dec-15 11:33N 57°41' E 011°47'0 0.0
2014-Dec-15 10:33N 57°41' E 011°47'0 0.0
2014-Dec-15 09:33N 57°41' E 011°47'0 0.0
2014-Dec-15 08:30N 57°41' E 011°47'0 0.0
2014-Dec-15 07:33N 57°41' E 011°47'0 0.0
2014-Dec-15 06:33N 57°41' E 011°47'0 0.0
2014-Dec-15 05:33N 57°41' E 011°47'0 0.0
2014-Dec-15 04:33N 57°41' E 011°47'0 0.0
2014-Dec-15 03:33N 57°41' E 011°47'0 0.0
2014-Dec-15 02:33N 57°41' E 011°47'0 0.0
2014-Dec-15 01:33N 57°41' E 011°47'0 0.0
2014-Dec-15 00:33N 57°41' E 011°47'0 0.0
2014-Dec-14 23:33N 57°41' E 011°47'0 0.0
2014-Dec-14 22:33N 57°41' E 011°47'0 0.0
2014-Dec-14 21:33N 57°41' E 011°47'0 0.0
2014-Dec-14 20:33N 57°41' E 011°47'0 0.0
2014-Dec-14 19:33N 57°41' E 011°47'0 0.0
2014-Dec-14 18:33N 57°41' E 011°47'0 0.0
2014-Dec-14 17:33N 57°41' E 011°47'0 0.0
2014-Dec-14 16:33N 57°41' E 011°47'0 0.0
2014-Dec-14 15:33N 57°41' E 011°47'0 0.0
2014-Dec-14 14:33N 57°41' E 011°47'0 0.0
2014-Dec-14 13:33N 57°41' E 011°47'0 0.0
2014-Dec-14 12:33N 57°41' E 011°47'1 1.4
2014-Dec-14 11:34N 57°41' E 011°45'7 6.9
2014-Dec-14 10:34N 57°36' E 011°35'6 5.8
2014-Dec-14 09:33N 57°39' E 011°25'5 5.2
2014-Dec-14 08:34N 57°42' E 011°17'7 6.6
2014-Dec-14 07:33N 57°45' E 011°05'10 9.6
2014-Dec-14 06:33N 57°49' E 010°49'1313.0
2014-Dec-14 05:33N 57°49' E 010°25'1312.3
2014-Dec-14 04:30N 57°48' E 010°00'7412.4
2014-Dec-13 22:32N 57°07' E 008°07'18011.2
2014-Dec-13 06:32N 54°37' E 005°10'1111.6
2014-Dec-13 05:33N 54°27' E 004°59'1411.6
2014-Dec-13 04:19N 54°16' E 004°46'911.6
2014-Dec-13 03:33N 54°08' E 004°39'12610.4
2014-Dec-12 15:22N 52°07' E 003°35'810.5
2014-Dec-12 14:33N 52°04' E 003°48'5 4.7
2014-Dec-12 13:33N 52°01' E 003°54'7 7.1
2014-Dec-12 12:33N 51°59' E 004°05'4 3.6
2014-Dec-12 11:34N 51°56' E 004°10'0 0.0
2014-Dec-12 10:33N 51°56' E 004°10'0 0.0
2014-Dec-12 09:33N 51°56' E 004°10'0 0.0
2014-Dec-12 08:34N 51°56' E 004°10'0 0.0
2014-Dec-12 07:33N 51°56' E 004°10'0 0.0
2014-Dec-12 06:33N 51°56' E 004°10'0 0.0
2014-Dec-12 05:34N 51°56' E 004°10'0 0.0
2014-Dec-12 04:34N 51°56' E 004°10'0 0.0
2014-Dec-12 03:34N 51°56' E 004°10'0 0.0
2014-Dec-12 02:34N 51°56' E 004°10'0 0.0
2014-Dec-12 01:33N 51°56' E 004°10'0 0.0
2014-Dec-12 00:34N 51°56' E 004°10'0 0.0
2014-Dec-11 23:33N 51°56' E 004°10'0 0.0
2014-Dec-11 22:33N 51°56' E 004°10'0 0.0
2014-Dec-11 21:34N 51°56' E 004°10'0 0.0
2014-Dec-11 20:33N 51°56' E 004°10'0 0.0
2014-Dec-11 19:33N 51°56' E 004°10'0 0.0
2014-Dec-11 18:34N 51°56' E 004°10'0 0.0
2014-Dec-11 17:33N 51°56' E 004°10'0 0.0
2014-Dec-11 16:33N 51°56' E 004°10'0 0.0
2014-Dec-11 15:34N 51°56' E 004°10'0 0.0
2014-Dec-11 14:33N 51°56' E 004°10'0 0.0
2014-Dec-11 13:33N 51°56' E 004°10'0 0.0
2014-Dec-11 12:33N 51°56' E 004°10'0 0.0
2014-Dec-11 11:31N 51°56' E 004°10'1 0.5
2014-Dec-11 10:33N 51°57' E 004°10'7 6.7
2014-Dec-11 09:34N 52°00' E 003°60'1110.9
2014-Dec-11 08:33N 52°01' E 003°42'0 0.4
2014-Dec-11 07:33N 52°01' E 003°42'3 2.6
2014-Dec-11 06:30N 52°01' E 003°38'1 1.0
2014-Dec-11 05:33N 52°01' E 003°39'2 1.5
2014-Dec-11 04:33N 52°01' E 003°42'1 0.8
2014-Dec-11 03:33N 52°01' E 003°41'1110.4
2014-Dec-11 02:29N 51°59' E 003°23'9 2.2
2014-Dec-10 22:15N 51°56' E 003°08'0 0.1
2014-Dec-10 21:30N 51°56' E 003°08'0 0.1
2014-Dec-10 20:30N 51°57' E 003°09'0 0.1
2014-Dec-10 19:33N 51°57' E 003°08'0 0.0
2014-Dec-10 07:12N 51°57' E 003°09'0 0.1
2014-Dec-10 06:30N 51°57' E 003°09'0 0.0
2014-Dec-10 05:27N 51°57' E 003°08'0 0.0
2014-Dec-10 04:33N 51°57' E 003°08'0 0.0
2014-Dec-10 03:33N 51°57' E 003°08'0 0.0
2014-Dec-10 02:30N 51°57' E 003°08'0 0.0
2014-Dec-09 21:06N 51°57' E 003°08'0 0.0
2014-Dec-09 18:15N 51°57' E 003°08'  
Track history (hours):
 
Tides and Currents Weather Stations Pressure Air Temp Water Temp Dewpoint Dewpoint Depression Visibility Wind Speed Wind Dir Waves Ship Positions

Delta Ios

Last reported at 2014-Dec-18 11:10 UTC. Time now 2014-Dec-20 13:43 UTC.
Position N 50°24' W 000°34'.

Length 276 m; draft 10.5 m.

Type: Tanker. MMSI: 240821000.

Date/timePositionNaut miles runAvg speedWind from/ knotsBaromVisibWave heightAir tempDewpointWater temp
2014-Dec-18 11:10N 50°24' W 000°34'810.0
2014-Dec-18 10:23N 50°27' W 000°22'9 9.7
2014-Dec-18 09:25N 50°29' W 000°08'9 9.4
2014-Dec-18 08:29N 50°32' E 000°05'8 9.0
2014-Dec-18 07:33N 50°34' E 000°18'8 8.4
2014-Dec-18 06:33N 50°36' E 000°31'8 8.4
2014-Dec-18 05:33N 50°40' E 000°42'9 9.5
2014-Dec-18 04:33N 50°46' E 000°54'1111.1
2014-Dec-18 03:33N 50°53' E 001°07'1212.3
2014-Dec-18 02:33N 51°01' E 001°22'1212.4
2014-Dec-18 01:33N 51°09' E 001°37'1111.3
2014-Dec-18 00:34N 51°18' E 001°49'1110.5
2014-Dec-17 23:34N 51°27' E 001°57'1010.1
2014-Dec-17 22:34N 51°35' E 002°07'1010.1
2014-Dec-17 21:34N 51°42' E 002°19'1110.4
2014-Dec-17 20:32N 51°50' E 002°31'1110.9
2014-Dec-17 19:33N 51°60' E 002°37'37310.3
2014-Dec-16 07:07N 57°16' E 008°19'68 8.6
2014-Dec-15 23:13N 57°49' E 010°10'6 9.2
2014-Dec-15 22:34N 57°49' E 010°21'9 9.2
2014-Dec-15 21:33N 57°50' E 010°38'8 8.2
2014-Dec-15 20:33N 57°49' E 010°54'9 9.2
2014-Dec-15 19:33N 57°44' E 011°09'10 9.8
2014-Dec-15 18:33N 57°39' E 011°24'9 8.8
2014-Dec-15 17:33N 57°37' E 011°40'6 5.7
2014-Dec-15 16:33N 57°41' E 011°47'0 0.0
2014-Dec-15 15:33N 57°41' E 011°47'0 0.0
2014-Dec-15 14:33N 57°41' E 011°47'0 0.0
2014-Dec-15 13:33N 57°41' E 011°47'0 0.0
2014-Dec-15 12:33N 57°41' E 011°47'0 0.0
2014-Dec-15 11:33N 57°41' E 011°47'0 0.0
2014-Dec-15 10:33N 57°41' E 011°47'0 0.0
2014-Dec-15 09:33N 57°41' E 011°47'0 0.0
2014-Dec-15 08:30N 57°41' E 011°47'0 0.0
2014-Dec-15 07:33N 57°41' E 011°47'0 0.0
2014-Dec-15 06:33N 57°41' E 011°47'0 0.0
2014-Dec-15 05:33N 57°41' E 011°47'0 0.0
2014-Dec-15 04:33N 57°41' E 011°47'0 0.0
2014-Dec-15 03:33N 57°41' E 011°47'0 0.0
2014-Dec-15 02:33N 57°41' E 011°47'0 0.0
2014-Dec-15 01:33N 57°41' E 011°47'0 0.0
2014-Dec-15 00:33N 57°41' E 011°47'0 0.0
2014-Dec-14 23:33N 57°41' E 011°47'0 0.0
2014-Dec-14 22:33N 57°41' E 011°47'0 0.0
2014-Dec-14 21:33N 57°41' E 011°47'0 0.0
2014-Dec-14 20:33N 57°41' E 011°47'0 0.0
2014-Dec-14 19:33N 57°41' E 011°47'0 0.0
2014-Dec-14 18:33N 57°41' E 011°47'0 0.0
2014-Dec-14 17:33N 57°41' E 011°47'0 0.0
2014-Dec-14 16:33N 57°41' E 011°47'0 0.0
2014-Dec-14 15:33N 57°41' E 011°47'0 0.0
2014-Dec-14 14:33N 57°41' E 011°47'0 0.0
2014-Dec-14 13:33N 57°41' E 011°47'0 0.0
2014-Dec-14 12:33N 57°41' E 011°47'1 1.4
2014-Dec-14 11:34N 57°41' E 011°45'7 6.9
2014-Dec-14 10:34N 57°36' E 011°35'6 5.8
2014-Dec-14 09:33N 57°39' E 011°25'5 5.2
2014-Dec-14 08:34N 57°42' E 011°17'7 6.6
2014-Dec-14 07:33N 57°45' E 011°05'10 9.6
2014-Dec-14 06:33N 57°49' E 010°49'1313.0
2014-Dec-14 05:33N 57°49' E 010°25'1312.3
2014-Dec-14 04:30N 57°48' E 010°00'7412.4
2014-Dec-13 22:32N 57°07' E 008°07'18011.2
2014-Dec-13 06:32N 54°37' E 005°10'1111.6
2014-Dec-13 05:33N 54°27' E 004°59'1411.6
2014-Dec-13 04:19N 54°16' E 004°46'911.6
2014-Dec-13 03:33N 54°08' E 004°39'12610.4
2014-Dec-12 15:22N 52°07' E 003°35'810.5
2014-Dec-12 14:33N 52°04' E 003°48'5 4.7
2014-Dec-12 13:33N 52°01' E 003°54'7 7.1
2014-Dec-12 12:33N 51°59' E 004°05'4 3.6
2014-Dec-12 11:34N 51°56' E 004°10'0 0.0
2014-Dec-12 10:33N 51°56' E 004°10'0 0.0
2014-Dec-12 09:33N 51°56' E 004°10'0 0.0
2014-Dec-12 08:34N 51°56' E 004°10'0 0.0
2014-Dec-12 07:33N 51°56' E 004°10'0 0.0
2014-Dec-12 06:33N 51°56' E 004°10'0 0.0
2014-Dec-12 05:34N 51°56' E 004°10'0 0.0
2014-Dec-12 04:34N 51°56' E 004°10'0 0.0
2014-Dec-12 03:34N 51°56' E 004°10'0 0.0
2014-Dec-12 02:34N 51°56' E 004°10'0 0.0
2014-Dec-12 01:33N 51°56' E 004°10'0 0.0
2014-Dec-12 00:34N 51°56' E 004°10'0 0.0
2014-Dec-11 23:33N 51°56' E 004°10'0 0.0
2014-Dec-11 22:33N 51°56' E 004°10'0 0.0
2014-Dec-11 21:34N 51°56' E 004°10'0 0.0
2014-Dec-11 20:33N 51°56' E 004°10'0 0.0
2014-Dec-11 19:33N 51°56' E 004°10'0 0.0
2014-Dec-11 18:34N 51°56' E 004°10'0 0.0
2014-Dec-11 17:33N 51°56' E 004°10'0 0.0
2014-Dec-11 16:33N 51°56' E 004°10'0 0.0
2014-Dec-11 15:34N 51°56' E 004°10'0 0.0
2014-Dec-11 14:33N 51°56' E 004°10'0 0.0
2014-Dec-11 13:33N 51°56' E 004°10'0 0.0
2014-Dec-11 12:33N 51°56' E 004°10'0 0.0
2014-Dec-11 11:31N 51°56' E 004°10'1 0.5
2014-Dec-11 10:33N 51°57' E 004°10'7 6.7
2014-Dec-11 09:34N 52°00' E 003°60'1110.9
2014-Dec-11 08:33N 52°01' E 003°42'0 0.4
2014-Dec-11 07:33N 52°01' E 003°42'3 2.6
2014-Dec-11 06:30N 52°01' E 003°38'1 1.0
2014-Dec-11 05:33N 52°01' E 003°39'2 1.5
2014-Dec-11 04:33N 52°01' E 003°42'1 0.8
2014-Dec-11 03:33N 52°01' E 003°41'1110.4
2014-Dec-11 02:29N 51°59' E 003°23'9 2.2
2014-Dec-10 22:15N 51°56' E 003°08'0 0.1
2014-Dec-10 21:30N 51°56' E 003°08'0 0.1
2014-Dec-10 20:30N 51°57' E 003°09'0 0.1
2014-Dec-10 19:33N 51°57' E 003°08'0 0.0
2014-Dec-10 07:12N 51°57' E 003°09'0 0.1
2014-Dec-10 06:30N 51°57' E 003°09'0 0.0
2014-Dec-10 05:27N 51°57' E 003°08'0 0.0
2014-Dec-10 04:33N 51°57' E 003°08'0 0.0
2014-Dec-10 03:33N 51°57' E 003°08'0 0.0
2014-Dec-10 02:30N 51°57' E 003°08'0 0.0
2014-Dec-09 21:06N 51°57' E 003°08'0 0.0
2014-Dec-09 18:15N 51°57' E 003°08'  

Dump ship's entire track history